sensor_id;sensor_type;location;lat;lon;timestamp;P1;durP1;ratioP1;P2;durP2;ratioP2
3726;SDS011;1879;45.876;12.300;2022-10-19T09:36:45;26.60;;;20.90;;
3726;SDS011;1879;45.876;12.300;2022-10-19T09:39:16;25.13;;;22.27;;
3726;SDS011;1879;45.876;12.300;2022-10-19T09:41:44;22.43;;;19.70;;
3726;SDS011;1879;45.876;12.300;2022-10-19T09:44:13;22.77;;;20.27;;
3726;SDS011;1879;45.876;12.300;2022-10-19T09:46:42;20.80;;;18.27;;
3726;SDS011;1879;45.876;12.300;2022-10-19T09:49:15;23.43;;;19.40;;
3726;SDS011;1879;45.876;12.300;2022-10-19T09:51:48;17.80;;;16.00;;
3726;SDS011;1879;45.876;12.300;2022-10-19T09:54:23;18.63;;;16.63;;
3726;SDS011;1879;45.876;12.300;2022-10-19T09:56:52;18.70;;;16.37;;
3726;SDS011;1879;45.876;12.300;2022-10-19T09:59:20;20.63;;;16.53;;
3726;SDS011;1879;45.876;12.300;2022-10-19T10:01:48;17.20;;;15.13;;
3726;SDS011;1879;45.876;12.300;2022-10-19T10:04:24;18.87;;;15.43;;
3726;SDS011;1879;45.876;12.300;2022-10-19T10:06:53;15.57;;;14.07;;
3726;SDS011;1879;45.876;12.300;2022-10-19T10:09:21;15.30;;;13.70;;
3726;SDS011;1879;45.876;12.300;2022-10-19T10:11:50;15.23;;;13.77;;
3726;SDS011;1879;45.876;12.300;2022-10-19T10:14:18;16.57;;;14.37;;
3726;SDS011;1879;45.876;12.300;2022-10-19T10:16:46;14.50;;;13.00;;
3726;SDS011;1879;45.876;12.300;2022-10-19T10:19:14;15.47;;;13.97;;
3726;SDS011;1879;45.876;12.300;2022-10-19T10:21:46;13.70;;;12.40;;
3726;SDS011;1879;45.876;12.300;2022-10-19T10:24:19;13.90;;;12.60;;
3726;SDS011;1879;45.876;12.300;2022-10-19T10:26:47;14.57;;;13.07;;
3726;SDS011;1879;45.876;12.300;2022-10-19T10:29:15;12.23;;;11.00;;
3726;SDS011;1879;45.876;12.300;2022-10-19T10:31:44;14.63;;;11.70;;
3726;SDS011;1879;45.876;12.300;2022-10-19T10:34:15;12.23;;;11.07;;
3726;SDS011;1879;45.876;12.300;2022-10-19T10:36:43;11.63;;;10.43;;
3726;SDS011;1879;45.876;12.300;2022-10-19T10:39:11;13.27;;;11.97;;
3726;SDS011;1879;45.876;12.300;2022-10-19T10:41:41;10.10;;;8.97;;
3726;SDS011;1879;45.876;12.300;2022-10-19T10:44:14;9.20;;;8.40;;
3726;SDS011;1879;45.876;12.300;2022-10-19T10:46:44;10.13;;;9.20;;
3726;SDS011;1879;45.876;12.300;2022-10-19T10:49:15;10.47;;;9.43;;
3726;SDS011;1879;45.876;12.300;2022-10-19T10:51:46;10.30;;;8.50;;
3726;SDS011;1879;45.876;12.300;2022-10-19T10:54:16;11.07;;;8.40;;
3726;SDS011;1879;45.876;12.300;2022-10-19T10:56:53;9.00;;;7.93;;
3726;SDS011;1879;45.876;12.300;2022-10-19T10:59:23;10.37;;;9.33;;
3726;SDS011;1879;45.876;12.300;2022-10-19T11:01:53;13.13;;;9.27;;
3726;SDS011;1879;45.876;12.300;2022-10-19T11:04:25;10.80;;;9.13;;
3726;SDS011;1879;45.876;12.300;2022-10-19T11:06:54;8.20;;;7.40;;
3726;SDS011;1879;45.876;12.300;2022-10-19T11:09:25;9.33;;;8.43;;
3726;SDS011;1879;45.876;12.300;2022-10-19T11:12:01;8.80;;;7.90;;
3726;SDS011;1879;45.876;12.300;2022-10-19T11:14:34;8.83;;;8.03;;
3726;SDS011;1879;45.876;12.300;2022-10-19T11:17:05;9.90;;;8.23;;
3726;SDS011;1879;45.876;12.300;2022-10-19T11:19:38;8.87;;;7.93;;
3726;SDS011;1879;45.876;12.300;2022-10-19T11:22:10;8.47;;;7.77;;
3726;SDS011;1879;45.876;12.300;2022-10-19T11:24:48;7.90;;;7.20;;
3726;SDS011;1879;45.876;12.300;2022-10-19T11:27:26;10.37;;;8.30;;
3726;SDS011;1879;45.876;12.300;2022-10-19T11:30:07;9.30;;;8.30;;
3726;SDS011;1879;45.876;12.300;2022-10-19T11:35:29;7.00;;;6.30;;
3726;SDS011;1879;45.876;12.300;2022-10-19T11:38:10;8.23;;;7.53;;
3726;SDS011;1879;45.876;12.300;2022-10-19T11:40:51;7.40;;;6.70;;
3726;SDS011;1879;45.876;12.300;2022-10-19T11:43:29;8.00;;;7.30;;
3726;SDS011;1879;45.876;12.300;2022-10-19T11:46:02;6.80;;;6.20;;
3726;SDS011;1879;45.876;12.300;2022-10-19T11:48:43;6.97;;;6.20;;
3726;SDS011;1879;45.876;12.300;2022-10-19T11:51:24;8.00;;;7.30;;
3726;SDS011;1879;45.876;12.300;2022-10-19T11:54:00;7.83;;;7.17;;
3726;SDS011;1879;45.876;12.300;2022-10-19T11:56:41;13.40;;;7.57;;
3726;SDS011;1879;45.876;12.300;2022-10-19T11:59:16;8.37;;;7.57;;
3726;SDS011;1879;45.876;12.300;2022-10-19T12:01:53;8.53;;;7.83;;
3726;SDS011;1879;45.876;12.300;2022-10-19T12:04:34;7.60;;;7.00;;
3726;SDS011;1879;45.876;12.300;2022-10-19T12:07:18;8.00;;;7.30;;
3726;SDS011;1879;45.876;12.300;2022-10-19T12:10:07;6.13;;;5.63;;
3726;SDS011;1879;45.876;12.300;2022-10-19T12:12:43;5.83;;;5.40;;
3726;SDS011;1879;45.876;12.300;2022-10-19T12:15:23;8.00;;;6.33;;
3726;SDS011;1879;45.876;12.300;2022-10-19T12:17:55;6.33;;;5.73;;
3726;SDS011;1879;45.876;12.300;2022-10-19T12:20:28;6.30;;;5.40;;
3726;SDS011;1879;45.876;12.300;2022-10-19T12:23:00;6.37;;;5.90;;
3726;SDS011;1879;45.876;12.300;2022-10-19T12:25:31;6.27;;;5.87;;
3726;SDS011;1879;45.876;12.300;2022-10-19T12:28:02;6.27;;;5.67;;
3726;SDS011;1879;45.876;12.300;2022-10-19T12:30:31;7.87;;;7.27;;
3726;SDS011;1879;45.876;12.300;2022-10-19T12:33:00;8.00;;;7.30;;
3726;SDS011;1879;45.876;12.300;2022-10-19T12:35:38;8.10;;;7.47;;
3726;SDS011;1879;45.876;12.300;2022-10-19T12:38:18;7.67;;;7.07;;
3726;SDS011;1879;45.876;12.300;2022-10-19T12:40:53;7.03;;;6.20;;
3726;SDS011;1879;45.876;12.300;2022-10-19T12:43:27;6.43;;;5.93;;
3726;SDS011;1879;45.876;12.300;2022-10-19T12:46:05;5.63;;;5.23;;
3726;SDS011;1879;45.876;12.300;2022-10-19T12:48:40;6.57;;;5.97;;
3726;SDS011;1879;45.876;12.300;2022-10-19T12:51:14;7.77;;;6.10;;
3726;SDS011;1879;45.876;12.300;2022-10-19T12:53:43;7.00;;;5.80;;
3726;SDS011;1879;45.876;12.300;2022-10-19T12:56:19;5.33;;;4.90;;
3726;SDS011;1879;45.876;12.300;2022-10-19T12:58:49;7.60;;;7.00;;
3726;SDS011;1879;45.876;12.300;2022-10-19T13:01:22;6.50;;;5.90;;
3726;SDS011;1879;45.876;12.300;2022-10-19T13:03:53;6.97;;;5.87;;
3726;SDS011;1879;45.876;12.300;2022-10-19T13:06:35;6.30;;;5.80;;
3726;SDS011;1879;45.876;12.300;2022-10-19T13:09:08;6.47;;;5.90;;
3726;SDS011;1879;45.876;12.300;2022-10-19T13:14:54;9.40;;;7.77;;
3726;SDS011;1879;45.876;12.300;2022-10-19T13:17:39;6.67;;;6.07;;
3726;SDS011;1879;45.876;12.300;2022-10-19T13:26:22;11.00;;;6.33;;
3726;SDS011;1879;45.876;12.300;2022-10-19T13:28:55;6.47;;;5.50;;
3726;SDS011;1879;45.876;12.300;2022-10-19T13:31:23;9.03;;;6.40;;
3726;SDS011;1879;45.876;12.300;2022-10-19T13:33:54;7.40;;;6.80;;
3726;SDS011;1879;45.876;12.300;2022-10-19T13:36:23;8.30;;;7.60;;
3726;SDS011;1879;45.876;12.300;2022-10-19T13:39:01;8.13;;;7.33;;
3726;SDS011;1879;45.876;12.300;2022-10-19T13:41:46;6.43;;;5.93;;
3726;SDS011;1879;45.876;12.300;2022-10-19T13:44:18;7.03;;;6.30;;
3726;SDS011;1879;45.876;12.300;2022-10-19T13:59:06;8.00;;;6.77;;
3726;SDS011;1879;45.876;12.300;2022-10-19T14:01:51;7.83;;;6.90;;
3726;SDS011;1879;45.876;12.300;2022-10-19T14:04:29;8.47;;;7.53;;
3726;SDS011;1879;45.876;12.300;2022-10-19T14:07:11;13.33;;;7.73;;
3726;SDS011;1879;45.876;12.300;2022-10-19T14:09:54;8.83;;;8.00;;
3726;SDS011;1879;45.876;12.300;2022-10-19T14:12:28;8.83;;;8.03;;
3726;SDS011;1879;45.876;12.300;2022-10-19T14:14:59;9.57;;;7.83;;
3726;SDS011;1879;45.876;12.300;2022-10-19T14:17:26;10.30;;;8.53;;
3726;SDS011;1879;45.876;12.300;2022-10-19T14:20:00;10.03;;;8.17;;
3726;SDS011;1879;45.876;12.300;2022-10-19T14:22:30;8.60;;;7.73;;
3726;SDS011;1879;45.876;12.300;2022-10-19T14:25:03;7.43;;;6.70;;
3726;SDS011;1879;45.876;12.300;2022-10-19T14:27:32;8.60;;;7.73;;
3726;SDS011;1879;45.876;12.300;2022-10-19T14:29:59;9.67;;;8.60;;
3726;SDS011;1879;45.876;12.300;2022-10-19T14:32:27;9.43;;;7.90;;
3726;SDS011;1879;45.876;12.300;2022-10-19T14:34:59;9.17;;;8.27;;
3726;SDS011;1879;45.876;12.300;2022-10-19T14:37:31;9.90;;;8.73;;
3726;SDS011;1879;45.876;12.300;2022-10-19T14:39:59;10.23;;;8.63;;
3726;SDS011;1879;45.876;12.300;2022-10-19T14:42:35;10.53;;;8.67;;
3726;SDS011;1879;45.876;12.300;2022-10-19T14:45:05;13.17;;;9.40;;
3726;SDS011;1879;45.876;12.300;2022-10-19T14:47:49;10.47;;;9.47;;
3726;SDS011;1879;45.876;12.300;2022-10-19T14:50:17;10.40;;;9.40;;
3726;SDS011;1879;45.876;12.300;2022-10-19T14:52:50;9.83;;;8.93;;
3726;SDS011;1879;45.876;12.300;2022-10-19T14:55:23;11.80;;;8.70;;
3726;SDS011;1879;45.876;12.300;2022-10-19T14:57:56;14.87;;;9.57;;
3726;SDS011;1879;45.876;12.300;2022-10-19T15:00:23;12.43;;;9.00;;
3726;SDS011;1879;45.876;12.300;2022-10-19T15:02:52;11.23;;;9.63;;
3726;SDS011;1879;45.876;12.300;2022-10-19T15:05:24;9.83;;;8.83;;
3726;SDS011;1879;45.876;12.300;2022-10-19T15:07:54;9.60;;;8.70;;
3726;SDS011;1879;45.876;12.300;2022-10-19T15:10:22;12.20;;;9.50;;
3726;SDS011;1879;45.876;12.300;2022-10-19T15:12:55;10.83;;;9.63;;
3726;SDS011;1879;45.876;12.300;2022-10-19T15:15:27;10.17;;;9.20;;
3726;SDS011;1879;45.876;12.300;2022-10-19T15:18:02;12.07;;;9.30;;
3726;SDS011;1879;45.876;12.300;2022-10-19T15:20:31;9.30;;;8.30;;
3726;SDS011;1879;45.876;12.300;2022-10-19T15:23:01;10.27;;;9.03;;
3726;SDS011;1879;45.876;12.300;2022-10-19T15:25:57;10.73;;;9.63;;
3726;SDS011;1879;45.876;12.300;2022-10-19T15:28:30;10.30;;;9.20;;
3726;SDS011;1879;45.876;12.300;2022-10-19T15:30:59;12.20;;;10.90;;
3726;SDS011;1879;45.876;12.300;2022-10-19T15:33:29;12.67;;;9.93;;
3726;SDS011;1879;45.876;12.300;2022-10-19T15:36:07;11.87;;;10.53;;
3726;SDS011;1879;45.876;12.300;2022-10-19T15:38:42;12.17;;;10.23;;
3726;SDS011;1879;45.876;12.300;2022-10-19T15:41:14;12.03;;;10.67;;
3726;SDS011;1879;45.876;12.300;2022-10-19T15:43:50;12.03;;;10.60;;
3726;SDS011;1879;45.876;12.300;2022-10-19T15:46:25;14.57;;;11.60;;
3726;SDS011;1879;45.876;12.300;2022-10-19T15:48:56;17.33;;;11.40;;
3726;SDS011;1879;45.876;12.300;2022-10-19T15:51:32;12.50;;;10.73;;
3726;SDS011;1879;45.876;12.300;2022-10-19T15:54:08;12.10;;;10.60;;
3726;SDS011;1879;45.876;12.300;2022-10-19T15:56:36;13.33;;;10.50;;
3726;SDS011;1879;45.876;12.300;2022-10-19T15:59:08;13.67;;;9.80;;
3726;SDS011;1879;45.876;12.300;2022-10-19T16:01:37;10.80;;;9.47;;
3726;SDS011;1879;45.876;12.300;2022-10-19T16:04:04;14.33;;;9.53;;
3726;SDS011;1879;45.876;12.300;2022-10-19T16:06:31;11.83;;;10.70;;
3726;SDS011;1879;45.876;12.300;2022-10-19T16:08:59;14.17;;;10.27;;
3726;SDS011;1879;45.876;12.300;2022-10-19T16:11:28;14.00;;;11.70;;
3726;SDS011;1879;45.876;12.300;2022-10-19T16:13:57;13.60;;;10.67;;
3726;SDS011;1879;45.876;12.300;2022-10-19T16:16:25;13.07;;;11.87;;
3726;SDS011;1879;45.876;12.300;2022-10-19T16:18:53;13.03;;;11.70;;
3726;SDS011;1879;45.876;12.300;2022-10-19T16:21:23;12.57;;;11.40;;
3726;SDS011;1879;45.876;12.300;2022-10-19T16:23:51;13.87;;;11.23;;
3726;SDS011;1879;45.876;12.300;2022-10-19T16:26:18;15.20;;;12.20;;
3726;SDS011;1879;45.876;12.300;2022-10-19T16:28:47;19.93;;;12.20;;
3726;SDS011;1879;45.876;12.300;2022-10-19T16:31:14;13.07;;;11.73;;
3726;SDS011;1879;45.876;12.300;2022-10-19T16:33:42;14.00;;;11.30;;
3726;SDS011;1879;45.876;12.300;2022-10-19T16:36:09;17.47;;;11.30;;
3726;SDS011;1879;45.876;12.300;2022-10-19T16:38:37;17.63;;;12.47;;
3726;SDS011;1879;45.876;12.300;2022-10-19T16:41:05;15.60;;;12.73;;
3726;SDS011;1879;45.876;12.300;2022-10-19T16:43:34;13.73;;;12.40;;
3726;SDS011;1879;45.876;12.300;2022-10-19T16:46:03;13.70;;;12.30;;
3726;SDS011;1879;45.876;12.300;2022-10-19T16:48:31;15.70;;;12.57;;
3726;SDS011;1879;45.876;12.300;2022-10-19T16:53:55;16.00;;;12.90;;
3726;SDS011;1879;45.876;12.300;2022-10-19T16:56:23;17.50;;;12.60;;
3726;SDS011;1879;45.876;12.300;2022-10-19T16:58:52;14.07;;;12.10;;
3726;SDS011;1879;45.876;12.300;2022-10-19T17:01:22;15.20;;;11.73;;
3726;SDS011;1879;45.876;12.300;2022-10-19T17:03:50;14.30;;;12.70;;
3726;SDS011;1879;45.876;12.300;2022-10-19T17:06:17;15.90;;;13.10;;
3726;SDS011;1879;45.876;12.300;2022-10-19T17:08:44;14.40;;;13.00;;
3726;SDS011;1879;45.876;12.300;2022-10-19T17:11:12;14.10;;;12.70;;
3726;SDS011;1879;45.876;12.300;2022-10-19T17:13:41;14.67;;;13.00;;
3726;SDS011;1879;45.876;12.300;2022-10-19T17:16:10;20.10;;;14.23;;
3726;SDS011;1879;45.876;12.300;2022-10-19T17:18:39;14.77;;;13.07;;
3726;SDS011;1879;45.876;12.300;2022-10-19T17:21:07;21.17;;;13.80;;
3726;SDS011;1879;45.876;12.300;2022-10-19T17:23:35;16.70;;;13.37;;
3726;SDS011;1879;45.876;12.300;2022-10-19T17:26:03;17.13;;;14.27;;
3726;SDS011;1879;45.876;12.300;2022-10-19T17:28:30;15.17;;;13.00;;
3726;SDS011;1879;45.876;12.300;2022-10-19T17:31:01;14.97;;;13.20;;
3726;SDS011;1879;45.876;12.300;2022-10-19T17:33:29;19.53;;;14.20;;
3726;SDS011;1879;45.876;12.300;2022-10-19T17:36:02;14.70;;;13.03;;
3726;SDS011;1879;45.876;12.300;2022-10-19T17:38:31;17.53;;;14.63;;
3726;SDS011;1879;45.876;12.300;2022-10-19T17:41:02;21.17;;;16.37;;
3726;SDS011;1879;45.876;12.300;2022-10-19T17:43:31;21.10;;;14.57;;
3726;SDS011;1879;45.876;12.300;2022-10-19T17:45:59;20.50;;;16.17;;
3726;SDS011;1879;45.876;12.300;2022-10-19T17:48:27;17.70;;;15.80;;
3726;SDS011;1879;45.876;12.300;2022-10-19T17:50:54;17.10;;;15.33;;
3726;SDS011;1879;45.876;12.300;2022-10-19T17:53:27;17.93;;;15.07;;
3726;SDS011;1879;45.876;12.300;2022-10-19T17:55:55;20.37;;;17.17;;
3726;SDS011;1879;45.876;12.300;2022-10-19T17:58:25;17.87;;;15.77;;
3726;SDS011;1879;45.876;12.300;2022-10-19T18:00:53;17.93;;;16.13;;
3726;SDS011;1879;45.876;12.300;2022-10-19T18:03:20;18.97;;;16.13;;
3726;SDS011;1879;45.876;12.300;2022-10-19T18:05:54;18.63;;;15.90;;
3726;SDS011;1879;45.876;12.300;2022-10-19T18:08:22;16.73;;;15.00;;
3726;SDS011;1879;45.876;12.300;2022-10-19T18:10:54;21.27;;;18.70;;
3726;SDS011;1879;45.876;12.300;2022-10-19T18:13:22;20.93;;;17.73;;
3726;SDS011;1879;45.876;12.300;2022-10-19T18:15:49;21.10;;;16.83;;
3726;SDS011;1879;45.876;12.300;2022-10-19T18:18:16;20.23;;;18.23;;
3726;SDS011;1879;45.876;12.300;2022-10-19T18:20:43;19.93;;;17.80;;
3726;SDS011;1879;45.876;12.300;2022-10-19T18:23:11;19.43;;;17.43;;
3726;SDS011;1879;45.876;12.300;2022-10-19T18:25:38;19.60;;;16.27;;
3726;SDS011;1879;45.876;12.300;2022-10-19T18:28:07;20.23;;;17.83;;
3726;SDS011;1879;45.876;12.300;2022-10-19T18:30:34;20.27;;;18.17;;
3726;SDS011;1879;45.876;12.300;2022-10-19T18:33:02;18.30;;;16.30;;
3726;SDS011;1879;45.876;12.300;2022-10-19T18:35:29;19.97;;;16.10;;
3726;SDS011;1879;45.876;12.300;2022-10-19T18:37:59;18.67;;;16.40;;
3726;SDS011;1879;45.876;12.300;2022-10-19T18:40:27;21.90;;;17.57;;
3726;SDS011;1879;45.876;12.300;2022-10-19T18:42:54;19.40;;;17.27;;
3726;SDS011;1879;45.876;12.300;2022-10-19T18:45:22;22.43;;;18.40;;
3726;SDS011;1879;45.876;12.300;2022-10-19T18:47:49;20.33;;;18.27;;
3726;SDS011;1879;45.876;12.300;2022-10-19T18:50:16;23.50;;;19.63;;
3726;SDS011;1879;45.876;12.300;2022-10-19T18:52:43;22.60;;;20.40;;
3726;SDS011;1879;45.876;12.300;2022-10-19T18:55:10;24.20;;;19.97;;
3726;SDS011;1879;45.876;12.300;2022-10-19T18:57:37;22.10;;;19.50;;
3726;SDS011;1879;45.876;12.300;2022-10-19T19:00:04;23.77;;;21.50;;
3726;SDS011;1879;45.876;12.300;2022-10-19T19:02:33;21.10;;;18.90;;
3726;SDS011;1879;45.876;12.300;2022-10-19T19:05:00;21.43;;;19.13;;
3726;SDS011;1879;45.876;12.300;2022-10-19T19:07:27;22.33;;;19.57;;
3726;SDS011;1879;45.876;12.300;2022-10-19T19:09:54;20.17;;;17.80;;
3726;SDS011;1879;45.876;12.300;2022-10-19T19:12:21;24.17;;;19.13;;
3726;SDS011;1879;45.876;12.300;2022-10-19T19:14:48;20.00;;;17.70;;
3726;SDS011;1879;45.876;12.300;2022-10-19T19:17:15;25.23;;;18.53;;
3726;SDS011;1879;45.876;12.300;2022-10-19T19:19:44;20.87;;;18.63;;
3726;SDS011;1879;45.876;12.300;2022-10-19T19:22:11;23.90;;;20.73;;
3726;SDS011;1879;45.876;12.300;2022-10-19T19:24:38;22.07;;;19.97;;
3726;SDS011;1879;45.876;12.300;2022-10-19T19:27:06;25.70;;;22.97;;
3726;SDS011;1879;45.876;12.300;2022-10-19T19:29:33;22.77;;;20.33;;
3726;SDS011;1879;45.876;12.300;2022-10-19T19:32:00;22.30;;;20.00;;
3726;SDS011;1879;45.876;12.300;2022-10-19T19:34:28;22.37;;;20.00;;
3726;SDS011;1879;45.876;12.300;2022-10-19T19:36:57;21.77;;;19.10;;
3726;SDS011;1879;45.876;12.300;2022-10-19T19:39:24;23.17;;;20.77;;
3726;SDS011;1879;45.876;12.300;2022-10-19T19:41:51;23.30;;;20.90;;
3726;SDS011;1879;45.876;12.300;2022-10-19T19:44:18;22.60;;;19.70;;
3726;SDS011;1879;45.876;12.300;2022-10-19T19:46:45;24.30;;;20.80;;
3726;SDS011;1879;45.876;12.300;2022-10-19T19:49:12;28.27;;;21.70;;
3726;SDS011;1879;45.876;12.300;2022-10-19T19:51:43;27.20;;;21.07;;
3726;SDS011;1879;45.876;12.300;2022-10-19T19:54:11;21.83;;;19.47;;
3726;SDS011;1879;45.876;12.300;2022-10-19T19:56:38;21.53;;;19.23;;
3726;SDS011;1879;45.876;12.300;2022-10-19T19:59:06;21.20;;;19.00;;
3726;SDS011;1879;45.876;12.300;2022-10-19T20:01:35;22.80;;;18.60;;
3726;SDS011;1879;45.876;12.300;2022-10-19T20:04:03;22.20;;;20.00;;
3726;SDS011;1879;45.876;12.300;2022-10-19T20:06:31;24.27;;;20.83;;
3726;SDS011;1879;45.876;12.300;2022-10-19T20:08:59;22.87;;;20.00;;
3726;SDS011;1879;45.876;12.300;2022-10-19T20:11:28;23.07;;;20.73;;
3726;SDS011;1879;45.876;12.300;2022-10-19T20:13:55;23.23;;;19.37;;
3726;SDS011;1879;45.876;12.300;2022-10-19T20:16:23;22.63;;;20.27;;
3726;SDS011;1879;45.876;12.300;2022-10-19T20:18:54;24.30;;;21.73;;
3726;SDS011;1879;45.876;12.300;2022-10-19T20:21:26;23.90;;;21.43;;
3726;SDS011;1879;45.876;12.300;2022-10-19T20:24:02;23.40;;;21.00;;
3726;SDS011;1879;45.876;12.300;2022-10-19T20:26:31;22.47;;;20.07;;
3726;SDS011;1879;45.876;12.300;2022-10-19T20:28:59;23.90;;;21.50;;
3726;SDS011;1879;45.876;12.300;2022-10-19T20:31:28;24.47;;;21.97;;
3726;SDS011;1879;45.876;12.300;2022-10-19T20:33:55;23.10;;;20.70;;
3726;SDS011;1879;45.876;12.300;2022-10-19T20:36:23;25.13;;;22.40;;
3726;SDS011;1879;45.876;12.300;2022-10-19T20:38:51;27.57;;;21.70;;
3726;SDS011;1879;45.876;12.300;2022-10-19T20:41:19;22.73;;;19.23;;
3726;SDS011;1879;45.876;12.300;2022-10-19T20:43:49;22.73;;;20.07;;
3726;SDS011;1879;45.876;12.300;2022-10-19T20:46:18;23.00;;;20.70;;
3726;SDS011;1879;45.876;12.300;2022-10-19T20:48:46;22.80;;;20.50;;
3726;SDS011;1879;45.876;12.300;2022-10-19T20:51:15;22.20;;;19.80;;
3726;SDS011;1879;45.876;12.300;2022-10-19T20:53:44;24.30;;;21.70;;
3726;SDS011;1879;45.876;12.300;2022-10-19T20:56:13;23.23;;;20.90;;
3726;SDS011;1879;45.876;12.300;2022-10-19T20:58:42;23.70;;;20.37;;
3726;SDS011;1879;45.876;12.300;2022-10-19T21:01:11;20.97;;;18.73;;
3726;SDS011;1879;45.876;12.300;2022-10-19T21:03:43;23.13;;;20.63;;
3726;SDS011;1879;45.876;12.300;2022-10-19T21:06:11;21.30;;;18.73;;
3726;SDS011;1879;45.876;12.300;2022-10-19T21:08:38;21.10;;;18.30;;
3726;SDS011;1879;45.876;12.300;2022-10-19T21:11:12;23.33;;;19.87;;
3726;SDS011;1879;45.876;12.300;2022-10-19T21:13:40;24.30;;;20.07;;
3726;SDS011;1879;45.876;12.300;2022-10-19T21:16:08;21.20;;;18.97;;
3726;SDS011;1879;45.876;12.300;2022-10-19T21:18:38;20.87;;;18.67;;
3726;SDS011;1879;45.876;12.300;2022-10-19T21:21:09;23.37;;;20.50;;
3726;SDS011;1879;45.876;12.300;2022-10-19T21:23:37;24.00;;;20.30;;
3726;SDS011;1879;45.876;12.300;2022-10-19T21:26:05;27.70;;;20.33;;
3726;SDS011;1879;45.876;12.300;2022-10-19T21:28:32;24.90;;;22.20;;
3726;SDS011;1879;45.876;12.300;2022-10-19T21:31:01;25.63;;;22.10;;
3726;SDS011;1879;45.876;12.300;2022-10-19T21:33:30;20.90;;;18.67;;
3726;SDS011;1879;45.876;12.300;2022-10-19T21:35:59;18.83;;;16.90;;
3726;SDS011;1879;45.876;12.300;2022-10-19T21:38:27;20.20;;;16.93;;
3726;SDS011;1879;45.876;12.300;2022-10-19T21:40:55;18.70;;;16.63;;
3726;SDS011;1879;45.876;12.300;2022-10-19T21:43:23;20.97;;;17.57;;
3726;SDS011;1879;45.876;12.300;2022-10-19T21:45:50;20.80;;;18.47;;
3726;SDS011;1879;45.876;12.300;2022-10-19T21:48:17;21.87;;;18.00;;
3726;SDS011;1879;45.876;12.300;2022-10-19T21:50:46;18.23;;;16.33;;
3726;SDS011;1879;45.876;12.300;2022-10-19T21:53:15;18.00;;;16.10;;
3726;SDS011;1879;45.876;12.300;2022-10-19T21:55:44;20.20;;;16.60;;
3726;SDS011;1879;45.876;12.300;2022-10-19T21:58:12;19.30;;;15.93;;
3726;SDS011;1879;45.876;12.300;2022-10-19T22:00:39;18.37;;;15.33;;
3726;SDS011;1879;45.876;12.300;2022-10-19T22:03:06;18.43;;;16.00;;
3726;SDS011;1879;45.876;12.300;2022-10-19T22:05:33;18.07;;;16.17;;
3726;SDS011;1879;45.876;12.300;2022-10-19T22:08:02;20.00;;;16.30;;
3726;SDS011;1879;45.876;12.300;2022-10-19T22:10:29;24.57;;;16.83;;
3726;SDS011;1879;45.876;12.300;2022-10-19T22:12:56;20.07;;;16.50;;
3726;SDS011;1879;45.876;12.300;2022-10-19T22:15:23;18.00;;;16.20;;
3726;SDS011;1879;45.876;12.300;2022-10-19T22:17:50;18.30;;;16.37;;
3726;SDS011;1879;45.876;12.300;2022-10-19T22:20:17;18.07;;;16.27;;
3726;SDS011;1879;45.876;12.300;2022-10-19T22:22:44;18.87;;;16.87;;
3726;SDS011;1879;45.876;12.300;2022-10-19T22:25:13;18.50;;;15.83;;
3726;SDS011;1879;45.876;12.300;2022-10-19T22:27:40;17.57;;;14.97;;
3726;SDS011;1879;45.876;12.300;2022-10-19T22:30:07;20.13;;;16.47;;
3726;SDS011;1879;45.876;12.300;2022-10-19T22:32:34;18.80;;;16.93;;
3726;SDS011;1879;45.876;12.300;2022-10-19T22:35:02;23.43;;;15.93;;
3726;SDS011;1879;45.876;12.300;2022-10-19T22:37:31;17.40;;;15.10;;
3726;SDS011;1879;45.876;12.300;2022-10-19T22:39:59;18.90;;;16.90;;
3726;SDS011;1879;45.876;12.300;2022-10-19T22:42:37;19.00;;;16.00;;
3726;SDS011;1879;45.876;12.300;2022-10-19T22:45:04;21.43;;;16.43;;
3726;SDS011;1879;45.876;12.300;2022-10-19T22:47:32;19.57;;;17.53;;
3726;SDS011;1879;45.876;12.300;2022-10-19T22:49:58;18.03;;;16.00;;
3726;SDS011;1879;45.876;12.300;2022-10-19T22:52:29;18.43;;;16.53;;
3726;SDS011;1879;45.876;12.300;2022-10-19T22:54:55;17.73;;;15.70;;
3726;SDS011;1879;45.876;12.300;2022-10-19T22:57:22;19.07;;;16.47;;
3726;SDS011;1879;45.876;12.300;2022-10-19T22:59:51;17.73;;;16.03;;
3726;SDS011;1879;45.876;12.300;2022-10-19T23:02:18;19.07;;;16.80;;
3726;SDS011;1879;45.876;12.300;2022-10-19T23:04:45;19.17;;;17.20;;
3726;SDS011;1879;45.876;12.300;2022-10-19T23:07:12;19.60;;;16.70;;
3726;SDS011;1879;45.876;12.300;2022-10-19T23:09:38;18.30;;;16.50;;
3726;SDS011;1879;45.876;12.300;2022-10-19T23:12:05;19.10;;;17.20;;
3726;SDS011;1879;45.876;12.300;2022-10-19T23:14:32;17.30;;;15.50;;
3726;SDS011;1879;45.876;12.300;2022-10-19T23:17:01;17.43;;;15.53;;
3726;SDS011;1879;45.876;12.300;2022-10-19T23:19:27;20.83;;;17.20;;
3726;SDS011;1879;45.876;12.300;2022-10-19T23:21:54;19.00;;;17.10;;
3726;SDS011;1879;45.876;12.300;2022-10-19T23:24:21;19.60;;;17.60;;
3726;SDS011;1879;45.876;12.300;2022-10-19T23:26:48;16.23;;;14.60;;
3726;SDS011;1879;45.876;12.300;2022-10-19T23:29:17;21.90;;;17.20;;
3726;SDS011;1879;45.876;12.300;2022-10-19T23:31:44;18.37;;;16.33;;
3726;SDS011;1879;45.876;12.300;2022-10-19T23:34:13;17.93;;;16.03;;
3726;SDS011;1879;45.876;12.300;2022-10-19T23:36:40;20.70;;;16.33;;
3726;SDS011;1879;45.876;12.300;2022-10-19T23:39:07;18.03;;;16.20;;
3726;SDS011;1879;45.876;12.300;2022-10-19T23:41:34;20.00;;;17.90;;
3726;SDS011;1879;45.876;12.300;2022-10-19T23:44:01;18.10;;;16.20;;
3726;SDS011;1879;45.876;12.300;2022-10-19T23:46:28;19.60;;;17.60;;
3726;SDS011;1879;45.876;12.300;2022-10-19T23:48:55;18.87;;;17.07;;
3726;SDS011;1879;45.876;12.300;2022-10-19T23:51:24;18.60;;;16.30;;
3726;SDS011;1879;45.876;12.300;2022-10-19T23:53:51;22.67;;;18.07;;
3726;SDS011;1879;45.876;12.300;2022-10-19T23:56:18;18.23;;;16.23;;
3726;SDS011;1879;45.876;12.300;2022-10-19T23:58:47;21.20;;;18.20;;
